Dulles, VA (20189)

5:02 PM EDT on March 31, 2015 (GMT -0400)
Countryside | | Change Station
CLOSE
Current Station
Personal Weather Station
Location: Sterling, VA
Elevation: 292 ft
Nearby Weather Stations

Elev 292 ft 39.04 °N, 77.42 °W | Updated 5 minutes ago

Overcast
Overcast
62.2 °F
Feels Like 62.2 °F
N
2.0
Wind Variable Wind from WSW
Gusts 2.0 mph

Today
High -- | Low -- °F
--% Chance of Precip.
Yesterday
High -- | Low -- °F
Precip. -- in
6:56 AM 7:32 PM
Waxing Gibbous, 89% visible
Pressure 29.57 in
Visibility 10.0 miles
Clouds Mostly Cloudy 3100 ft
Overcast 7500 ft
Dew Point 40 °F
Humidity 44%
Rainfall 0.00 in
Snow Depth Not available.
UV 1 out of 12
Pollen 9.20 out of 12
Air Quality Not available.
Flu Activity Not available.
METAR KIAD 312052Z 33010KT 10SM BKN031 OVC075 17/02 A2957 RMK AO2 PK WND 22030/2009 RAB00E30 SLP012 VIRGA P0000 60000 T01720022 56022

More Conditions Fewer Conditions

Pressure 29.57 in
Visibility 10.0 miles
Clouds Mostly Cloudy 3100 ft
Overcast 7500 ft
Dew Point 40 °F
Humidity 44%
Rainfall 0.00 in
Snow Depth Not available.
UV 1 out of 12
Pollen 9.20 out of 12
Air Quality Not available.
Flu Activity Not available.
METAR KIAD 312052Z 33010KT 10SM BKN031 OVC075 17/02 A2957 RMK AO2 PK WND 22030/2009 RAB00E30 SLP012 VIRGA P0000 60000 T01720022 56022

More Conditions Fewer Conditions

10-Day Weather Forecast

Almanac

Astronomy

Mar. 31, 2015 Rise Set
Actual Time
Civil Twilight
Nautical Twilight
Astronomical Twilight
Moon
Length of Visible Light
Length of Day
Tomorrow will be .
, % of the Moon is Illuminated

Today's Extremes

State Highs State Lows

Community

WunderPhotos

Upload Photos

1,809,834 photos uploaded!

WunderBlogs® & News

Nearby

Air Quality

  Air Quality AQ Index Pollutant
Not available.

Snow Depth

Station Depth Elevation

Earthquake Activity

City Distance Mag. Time & Date
Minimum magnitude displayed is 2.5.

Coastal Water Temperatures

Place Temperature

Stations

Nearby Weather Stations

Station Location Temp. Windchill Dew Point Humidity Wind Precip. Elev Updated Type